TLM7325 RCKH-VTCC
Flight info
| Callsign | TLM7325 |
|---|---|
| Flight time | N/A |
| Altitude | 38000 |
| Route | PARAS1B PARAS T7 WP521 G581 ELATO A1 BIGEX A202 SIKOU/K0843S1160 A202 ASSAD/K0839F380 A206 VIN R335 IDOTA/N0452F380 R335 VTN R207 MONLO MONLO2A |
| Aircraft | B738/M-SDE2E3FGHIRWXY/LB1 |
Departure
| Time | 2026-04-28 13:22 |
|---|---|
| Airport | Kaohsiung International Airport (RCKH) |
Arrival
| Time | N/A |
|---|---|
| Airport | Chiang Mai International Airport (VTCC) |
| Time | Latitude | Longitude | Altitude | Speed | Heading |
|---|---|---|---|---|---|
| 2026-04-28 12:40 | 22.57273 | 120.33970 | 28 ft | 0 kts | 273° |
| 2026-04-28 13:05 | 22.57273 | 120.33972 | 28 ft | 1 kts | 273° |
| 2026-04-28 13:06 | 22.57272 | 120.33980 | 28 ft | 1 kts | 273° |
| 2026-04-28 13:06 | 22.57272 | 120.33989 | 28 ft | 2 kts | 273° |
| 2026-04-28 13:06 | 22.57271 | 120.34003 | 28 ft | 2 kts | 273° |
| 2026-04-28 13:06 | 22.57267 | 120.34016 | 28 ft | 2 kts | 319° |
| 2026-04-28 13:07 | 22.57262 | 120.34020 | 28 ft | 0 kts | 1° |
| 2026-04-28 13:12 | 22.57276 | 120.34026 | 14 ft | 6 kts | 26° |
| 2026-04-28 13:12 | 22.57334 | 120.34051 | 28 ft | 9 kts | 10° |
| 2026-04-28 13:13 | 22.57393 | 120.34074 | 28 ft | 9 kts | 38° |
| 2026-04-28 13:13 | 22.57438 | 120.34117 | 28 ft | 9 kts | 21° |
| 2026-04-28 13:13 | 22.57498 | 120.34125 | 28 ft | 9 kts | 2° |
| 2026-04-28 13:13 | 22.57552 | 120.34144 | 28 ft | 8 kts | 42° |
| 2026-04-28 13:14 | 22.57567 | 120.34202 | 29 ft | 8 kts | 91° |
| 2026-04-28 13:14 | 22.57564 | 120.34275 | 29 ft | 14 kts | 92° |
| 2026-04-28 13:14 | 22.57559 | 120.34393 | 29 ft | 18 kts | 92° |
| 2026-04-28 13:14 | 22.57555 | 120.34542 | 30 ft | 20 kts | 91° |
| 2026-04-28 13:15 | 22.57551 | 120.34692 | 31 ft | 20 kts | 91° |
| 2026-04-28 13:15 | 22.57548 | 120.34836 | 31 ft | 19 kts | 92° |
| 2026-04-28 13:15 | 22.57543 | 120.34977 | 31 ft | 18 kts | 92° |
| 2026-04-28 13:15 | 22.57539 | 120.35110 | 32 ft | 18 kts | 92° |
| 2026-04-28 13:16 | 22.57536 | 120.35239 | 32 ft | 17 kts | 91° |
| 2026-04-28 13:16 | 22.57530 | 120.35366 | 32 ft | 16 kts | 92° |
| 2026-04-28 13:16 | 22.57527 | 120.35488 | 33 ft | 16 kts | 91° |
| 2026-04-28 13:16 | 22.57524 | 120.35604 | 34 ft | 15 kts | 92° |
| 2026-04-28 13:17 | 22.57520 | 120.35716 | 34 ft | 15 kts | 92° |
| 2026-04-28 13:17 | 22.57515 | 120.35824 | 34 ft | 14 kts | 92° |
| 2026-04-28 13:17 | 22.57511 | 120.35927 | 35 ft | 13 kts | 92° |
| 2026-04-28 13:17 | 22.57509 | 120.36027 | 36 ft | 13 kts | 91° |
| 2026-04-28 13:18 | 22.57507 | 120.36123 | 36 ft | 13 kts | 91° |
| 2026-04-28 13:18 | 22.57505 | 120.36217 | 36 ft | 12 kts | 91° |
| 2026-04-28 13:18 | 22.57503 | 120.36309 | 37 ft | 12 kts | 91° |
| 2026-04-28 13:18 | 22.57499 | 120.36399 | 37 ft | 12 kts | 93° |
| 2026-04-28 13:19 | 22.57501 | 120.36486 | 38 ft | 11 kts | 72° |
| 2026-04-28 13:19 | 22.57559 | 120.36529 | 38 ft | 2 kts | 6° |
| 2026-04-28 13:20 | 22.57568 | 120.36530 | 38 ft | 5 kts | 5° |
| 2026-04-28 13:20 | 22.57627 | 120.36522 | 38 ft | 11 kts | 334° |
| 2026-04-28 13:21 | 22.57662 | 120.36467 | 38 ft | 2 kts | 277° |
| 2026-04-28 13:21 | 22.57662 | 120.36466 | 38 ft | 0 kts | 276° |
| 2026-04-28 13:21 | 22.57663 | 120.36443 | 38 ft | 17 kts | 274° |
| 2026-04-28 13:21 | 22.57677 | 120.35972 | 35 ft | 107 kts | 271° |
| 2026-04-28 13:22 | 22.57720 | 120.34876 | 107 ft | 177 kts | 273° |
| 2026-04-28 13:22 | 22.57768 | 120.33442 | 840 ft | 199 kts | 271° |
| 2026-04-28 13:22 | 22.57768 | 120.31945 | 2003 ft | 198 kts | 268° |
| 2026-04-28 13:22 | 22.57800 | 120.30365 | 2617 ft | 224 kts | 269° |
| 2026-04-28 13:23 | 22.57855 | 120.28593 | 2794 ft | 246 kts | 270° |
| 2026-04-28 13:23 | 22.57913 | 120.26696 | 3073 ft | 263 kts | 270° |
| 2026-04-28 13:23 | 22.57718 | 120.24686 | 3422 ft | 273 kts | 244° |
| 2026-04-28 13:23 | 22.56658 | 120.23045 | 4219 ft | 265 kts | 224° |
| 2026-04-28 13:24 | 22.55408 | 120.21627 | 4963 ft | 266 kts | 223° |
| 2026-04-28 13:24 | 22.54121 | 120.20182 | 5670 ft | 267 kts | 223° |
| 2026-04-28 13:24 | 22.52813 | 120.18735 | 6351 ft | 270 kts | 223° |
| 2026-04-28 13:24 | 22.51490 | 120.17266 | 6983 ft | 272 kts | 224° |
| 2026-04-28 13:25 | 22.50192 | 120.15788 | 7678 ft | 273 kts | 226° |
| 2026-04-28 13:25 | 22.48869 | 120.14280 | 8234 ft | 276 kts | 225° |
| 2026-04-28 13:25 | 22.47556 | 120.12777 | 9002 ft | 275 kts | 226° |
| 2026-04-28 13:25 | 22.46229 | 120.11277 | 9660 ft | 277 kts | 226° |
| 2026-04-28 13:26 | 22.44901 | 120.09774 | 10301 ft | 279 kts | 226° |
| 2026-04-28 13:26 | 22.43509 | 120.08196 | 10477 ft | 298 kts | 226° |
| 2026-04-28 13:26 | 22.42035 | 120.06523 | 10615 ft | 317 kts | 228° |
| 2026-04-28 13:26 | 22.40628 | 120.04595 | 10755 ft | 334 kts | 234° |
| 2026-04-28 13:27 | 22.39295 | 120.02534 | 11106 ft | 342 kts | 235° |
| 2026-04-28 13:27 | 22.37947 | 120.00397 | 11679 ft | 343 kts | 236° |
| 2026-04-28 13:27 | 22.36599 | 119.98270 | 12194 ft | 346 kts | 235° |
| 2026-04-28 13:27 | 22.35224 | 119.96122 | 12789 ft | 348 kts | 235° |
| 2026-04-28 13:28 | 22.33826 | 119.93957 | 13395 ft | 352 kts | 235° |
| 2026-04-28 13:28 | 22.32413 | 119.91785 | 13999 ft | 354 kts | 235° |
| 2026-04-28 13:28 | 22.30984 | 119.89594 | 14557 ft | 358 kts | 235° |
| 2026-04-28 13:28 | 22.29544 | 119.87393 | 15134 ft | 360 kts | 235° |
| 2026-04-28 13:29 | 22.28093 | 119.85176 | 15699 ft | 363 kts | 235° |
| 2026-04-28 13:29 | 22.26622 | 119.82931 | 16250 ft | 366 kts | 235° |
| 2026-04-28 13:29 | 22.25169 | 119.80712 | 16853 ft | 368 kts | 234° |
| 2026-04-28 13:29 | 22.23662 | 119.78413 | 17384 ft | 372 kts | 234° |
| 2026-04-28 13:30 | 22.22182 | 119.76157 | 17912 ft | 375 kts | 234° |
| 2026-04-28 13:30 | 22.20823 | 119.73747 | 18387 ft | 379 kts | 247° |
| 2026-04-28 13:30 | 22.20100 | 119.71006 | 18862 ft | 381 kts | 256° |
| 2026-04-28 13:30 | 22.19525 | 119.68201 | 19329 ft | 384 kts | 256° |
| 2026-04-28 13:31 | 22.18348 | 119.62528 | 20203 ft | 389 kts | 256° |
| 2026-04-28 13:31 | 22.17733 | 119.59664 | 20648 ft | 392 kts | 256° |
| 2026-04-28 13:31 | 22.17108 | 119.56799 | 21085 ft | 394 kts | 256° |
| 2026-04-28 13:32 | 22.16474 | 119.53903 | 21512 ft | 397 kts | 256° |
| 2026-04-28 13:32 | 22.16014 | 119.50983 | 21921 ft | 400 kts | 265° |
| 2026-04-28 13:32 | 22.15910 | 119.47976 | 22322 ft | 403 kts | 267° |
| 2026-04-28 13:32 | 22.15856 | 119.44938 | 22723 ft | 406 kts | 268° |
| 2026-04-28 13:33 | 22.15803 | 119.41878 | 23105 ft | 408 kts | 268° |
| 2026-04-28 13:33 | 22.15744 | 119.38824 | 23486 ft | 410 kts | 267° |
| 2026-04-28 13:33 | 22.15676 | 119.35770 | 23801 ft | 412 kts | 267° |
| 2026-04-28 13:33 | 22.15600 | 119.32674 | 24118 ft | 414 kts | 267° |
| 2026-04-28 13:34 | 22.15520 | 119.29558 | 24435 ft | 416 kts | 267° |
| 2026-04-28 13:34 | 22.15437 | 119.26433 | 24746 ft | 417 kts | 267° |
| 2026-04-28 13:34 | 22.15354 | 119.23293 | 25059 ft | 419 kts | 267° |
| 2026-04-28 13:34 | 22.15269 | 119.20148 | 25367 ft | 420 kts | 267° |
| 2026-04-28 13:35 | 22.15184 | 119.16984 | 25655 ft | 422 kts | 267° |
| 2026-04-28 13:35 | 22.15098 | 119.13822 | 25936 ft | 424 kts | 267° |
| 2026-04-28 13:35 | 22.15011 | 119.10632 | 26225 ft | 426 kts | 267° |
| 2026-04-28 13:35 | 22.14953 | 119.08511 | 26411 ft | 427 kts | 267° |
| 2026-04-28 13:36 | 22.15178 | 119.04261 | 26768 ft | 432 kts | 277° |
| 2026-04-28 13:36 | 22.15729 | 119.01028 | 27036 ft | 433 kts | 278° |
| 2026-04-28 13:36 | 22.16091 | 118.98912 | 27215 ft | 434 kts | 278° |
| 2026-04-28 13:36 | 22.16606 | 118.95684 | 27473 ft | 436 kts | 277° |
| 2026-04-28 13:37 | 22.17021 | 118.92462 | 27715 ft | 437 kts | 275° |
| 2026-04-28 13:37 | 22.17391 | 118.89211 | 27959 ft | 439 kts | 275° |
| 2026-04-28 13:37 | 22.17754 | 118.85936 | 28211 ft | 440 kts | 275° |
| 2026-04-28 13:37 | 22.18242 | 118.81622 | 28531 ft | 442 kts | 275° |
| 2026-04-28 13:38 | 22.18498 | 118.79409 | 28687 ft | 444 kts | 275° |
| 2026-04-28 13:38 | 22.18887 | 118.76098 | 28922 ft | 445 kts | 275° |
| 2026-04-28 13:38 | 22.19276 | 118.72821 | 29145 ft | 447 kts | 275° |
| 2026-04-28 13:38 | 22.19673 | 118.69486 | 29365 ft | 448 kts | 275° |
| 2026-04-28 13:39 | 22.20070 | 118.66141 | 29626 ft | 449 kts | 275° |
| 2026-04-28 13:39 | 22.20467 | 118.62806 | 30002 ft | 446 kts | 275° |
| 2026-04-28 13:39 | 22.20860 | 118.59489 | 30351 ft | 444 kts | 275° |
| 2026-04-28 13:39 | 22.21249 | 118.56195 | 30657 ft | 442 kts | 275° |
| 2026-04-28 13:40 | 22.21637 | 118.52899 | 30941 ft | 442 kts | 275° |
| 2026-04-28 13:40 | 22.22023 | 118.49596 | 31211 ft | 441 kts | 275° |
| 2026-04-28 13:40 | 22.22401 | 118.46351 | 31522 ft | 440 kts | 275° |
| 2026-04-28 13:40 | 22.22782 | 118.43075 | 31848 ft | 438 kts | 275° |
| 2026-04-28 13:41 | 22.23161 | 118.39804 | 32151 ft | 437 kts | 276° |
| 2026-04-28 13:41 | 22.23537 | 118.36556 | 32459 ft | 436 kts | 276° |
| 2026-04-28 13:41 | 22.23918 | 118.33306 | 32750 ft | 435 kts | 276° |
| 2026-04-28 13:41 | 22.24300 | 118.30073 | 33041 ft | 435 kts | 276° |
| 2026-04-28 13:42 | 22.24677 | 118.26831 | 33363 ft | 433 kts | 276° |
| 2026-04-28 13:42 | 22.25037 | 118.23631 | 33692 ft | 431 kts | 276° |
| 2026-04-28 13:42 | 22.25394 | 118.20456 | 33988 ft | 430 kts | 276° |
| 2026-04-28 13:42 | 22.25759 | 118.17254 | 34238 ft | 429 kts | 276° |
| 2026-04-28 13:43 | 22.26126 | 118.14041 | 34525 ft | 428 kts | 276° |
| 2026-04-28 13:43 | 22.26478 | 118.10898 | 34801 ft | 426 kts | 276° |
| 2026-04-28 13:43 | 22.26813 | 118.07749 | 35089 ft | 424 kts | 276° |
| 2026-04-28 13:43 | 22.27150 | 118.04550 | 35335 ft | 423 kts | 276° |
| 2026-04-28 13:44 | 22.27480 | 118.01431 | 35537 ft | 423 kts | 276° |
| 2026-04-28 13:44 | 22.27821 | 117.98281 | 35788 ft | 422 kts | 276° |
| 2026-04-28 13:44 | 22.28178 | 117.95137 | 36079 ft | 420 kts | 276° |
| 2026-04-28 13:44 | 22.28538 | 117.92020 | 36348 ft | 418 kts | 277° |
| 2026-04-28 13:45 | 22.28898 | 117.88908 | 36564 ft | 417 kts | 277° |
| 2026-04-28 13:45 | 22.29257 | 117.85797 | 36804 ft | 416 kts | 276° |
| 2026-04-28 13:45 | 22.29610 | 117.82721 | 37044 ft | 415 kts | 276° |
| 2026-04-28 13:45 | 22.29961 | 117.79640 | 37254 ft | 414 kts | 276° |
| 2026-04-28 13:46 | 22.30309 | 117.76576 | 37475 ft | 413 kts | 276° |
| 2026-04-28 13:46 | 22.30653 | 117.73539 | 37691 ft | 412 kts | 276° |
| 2026-04-28 13:46 | 22.30998 | 117.70486 | 37892 ft | 411 kts | 276° |
| 2026-04-28 13:46 | 22.31346 | 117.67410 | 37907 ft | 414 kts | 276° |
| 2026-04-28 13:47 | 22.32040 | 117.61247 | 37927 ft | 413 kts | 276° |
| 2026-04-28 13:47 | 22.32722 | 117.55167 | 37931 ft | 409 kts | 276° |
| 2026-04-28 13:48 | 22.33336 | 117.49072 | 37925 ft | 406 kts | 271° |
| 2026-04-28 13:48 | 22.33271 | 117.42976 | 37937 ft | 404 kts | 269° |
| 2026-04-28 13:49 | 22.33112 | 117.36901 | 37933 ft | 403 kts | 269° |
| 2026-04-28 13:49 | 22.32973 | 117.30838 | 37936 ft | 404 kts | 269° |
| 2026-04-28 13:50 | 22.32852 | 117.24788 | 37937 ft | 405 kts | 269° |
| 2026-04-28 13:50 | 22.32737 | 117.18709 | 37939 ft | 406 kts | 269° |
| 2026-04-28 13:51 | 22.32622 | 117.12628 | 37941 ft | 408 kts | 269° |
| 2026-04-28 13:51 | 22.32503 | 117.06512 | 37936 ft | 410 kts | 269° |
| 2026-04-28 13:52 | 22.32381 | 117.00348 | 37937 ft | 411 kts | 269° |
| 2026-04-28 13:52 | 22.32257 | 116.94190 | 37932 ft | 412 kts | 269° |
| 2026-04-28 13:53 | 22.32130 | 116.87994 | 37933 ft | 412 kts | 269° |
| 2026-04-28 13:53 | 22.32000 | 116.81807 | 37935 ft | 411 kts | 269° |
| 2026-04-28 13:54 | 22.31869 | 116.75658 | 37929 ft | 410 kts | 269° |
| 2026-04-28 13:54 | 22.31736 | 116.69544 | 37929 ft | 409 kts | 269° |
| 2026-04-28 13:55 | 22.31601 | 116.63400 | 37931 ft | 407 kts | 268° |
| 2026-04-28 13:55 | 22.31464 | 116.57321 | 37930 ft | 406 kts | 268° |
| 2026-04-28 13:56 | 22.31325 | 116.51222 | 37929 ft | 406 kts | 268° |
| 2026-04-28 13:56 | 22.31184 | 116.45151 | 37929 ft | 405 kts | 268° |
| 2026-04-28 13:57 | 22.31041 | 116.39078 | 37921 ft | 404 kts | 268° |
| 2026-04-28 13:57 | 22.30896 | 116.33010 | 37924 ft | 403 kts | 268° |
| 2026-04-28 13:58 | 22.30750 | 116.26995 | 37929 ft | 403 kts | 268° |
| 2026-04-28 13:58 | 22.30599 | 116.20894 | 37924 ft | 403 kts | 268° |
| 2026-04-28 13:59 | 22.30448 | 116.14846 | 37916 ft | 403 kts | 268° |
| 2026-04-28 13:59 | 22.30294 | 116.08786 | 37925 ft | 404 kts | 268° |
| 2026-04-28 14:00 | 22.30138 | 116.02762 | 37927 ft | 404 kts | 268° |
| 2026-04-28 14:00 | 22.29980 | 115.96694 | 37911 ft | 405 kts | 268° |
| 2026-04-28 14:01 | 22.29818 | 115.90607 | 37925 ft | 405 kts | 268° |
| 2026-04-28 14:01 | 22.29655 | 115.84522 | 37925 ft | 406 kts | 268° |
| 2026-04-28 14:02 | 22.29467 | 115.78437 | 37920 ft | 406 kts | 268° |
| 2026-04-28 14:02 | 22.29233 | 115.72335 | 37921 ft | 406 kts | 267° |
| 2026-04-28 14:03 | 22.28997 | 115.66268 | 37912 ft | 406 kts | 267° |
| 2026-04-28 14:03 | 22.28762 | 115.60171 | 37922 ft | 406 kts | 267° |
| 2026-04-28 14:04 | 22.28526 | 115.54063 | 37917 ft | 406 kts | 267° |
| 2026-04-28 14:04 | 22.28292 | 115.48008 | 37909 ft | 406 kts | 267° |
| 2026-04-28 14:05 | 22.28054 | 115.41924 | 37913 ft | 405 kts | 267° |
| 2026-04-28 14:05 | 22.27813 | 115.35838 | 37916 ft | 405 kts | 267° |
| 2026-04-28 14:06 | 22.27570 | 115.29747 | 37903 ft | 405 kts | 267° |
| 2026-04-28 14:06 | 22.27326 | 115.23679 | 37914 ft | 405 kts | 267° |
| 2026-04-28 14:07 | 22.27080 | 115.17609 | 37918 ft | 405 kts | 267° |
| 2026-04-28 14:07 | 22.26832 | 115.11575 | 37902 ft | 405 kts | 267° |
| 2026-04-28 14:08 | 22.26581 | 115.05503 | 37910 ft | 405 kts | 267° |
| 2026-04-28 14:08 | 22.26327 | 114.99416 | 37902 ft | 405 kts | 266° |
| 2026-04-28 14:09 | 22.26071 | 114.93340 | 37907 ft | 405 kts | 266° |
| 2026-04-28 14:09 | 22.25813 | 114.87267 | 37902 ft | 405 kts | 266° |
| 2026-04-28 14:10 | 22.25554 | 114.81228 | 37899 ft | 405 kts | 266° |
| 2026-04-28 14:10 | 22.25292 | 114.75156 | 37905 ft | 405 kts | 266° |
| 2026-04-28 14:11 | 22.25027 | 114.69080 | 37903 ft | 405 kts | 266° |
| 2026-04-28 14:11 | 22.24759 | 114.62997 | 37905 ft | 405 kts | 266° |
| 2026-04-28 14:12 | 22.24490 | 114.56929 | 37901 ft | 405 kts | 266° |
| 2026-04-28 14:12 | 22.24220 | 114.50885 | 37899 ft | 405 kts | 266° |
| 2026-04-28 14:13 | 22.23947 | 114.44822 | 37899 ft | 404 kts | 266° |
| 2026-04-28 14:13 | 22.23670 | 114.38750 | 37902 ft | 404 kts | 266° |
| 2026-04-28 14:14 | 22.23392 | 114.32684 | 37900 ft | 404 kts | 266° |
| 2026-04-28 14:14 | 22.23113 | 114.26632 | 37897 ft | 404 kts | 266° |
| 2026-04-28 14:15 | 22.22831 | 114.20582 | 37884 ft | 402 kts | 266° |
| 2026-04-28 14:15 | 22.22550 | 114.14598 | 37889 ft | 402 kts | 266° |
| 2026-04-28 14:16 | 22.22266 | 114.08576 | 37895 ft | 402 kts | 266° |
| 2026-04-28 14:16 | 22.21294 | 114.02665 | 37897 ft | 401 kts | 252° |
| 2026-04-28 14:17 | 22.18985 | 113.97185 | 37901 ft | 403 kts | 242° |
| 2026-04-28 14:17 | 22.16168 | 113.91948 | 37895 ft | 403 kts | 242° |
| 2026-04-28 14:18 | 22.13821 | 113.87602 | 37879 ft | 404 kts | 242° |
| 2026-04-28 14:18 | 22.10526 | 113.81463 | 37883 ft | 404 kts | 242° |
| 2026-04-28 14:19 | 22.08191 | 113.77095 | 37883 ft | 404 kts | 242° |
| 2026-04-28 14:19 | 22.05382 | 113.71837 | 37874 ft | 405 kts | 242° |
| 2026-04-28 14:20 | 22.02564 | 113.66569 | 37886 ft | 405 kts | 242° |
| 2026-04-28 14:20 | 21.99767 | 113.61343 | 37887 ft | 405 kts | 242° |
| 2026-04-28 14:21 | 21.96935 | 113.56058 | 37873 ft | 405 kts | 242° |
| 2026-04-28 14:21 | 21.94128 | 113.50826 | 37879 ft | 405 kts | 241° |
| 2026-04-28 14:22 | 21.91305 | 113.45568 | 37870 ft | 405 kts | 241° |
| 2026-04-28 14:22 | 21.88483 | 113.40318 | 37861 ft | 406 kts | 241° |
| 2026-04-28 14:23 | 21.85649 | 113.35050 | 37866 ft | 406 kts | 241° |
| 2026-04-28 14:23 | 21.82816 | 113.29790 | 37866 ft | 406 kts | 241° |
| 2026-04-28 14:24 | 21.79995 | 113.24555 | 37863 ft | 406 kts | 241° |
| 2026-04-28 14:24 | 21.77157 | 113.19296 | 37866 ft | 406 kts | 241° |
| 2026-04-28 14:25 | 21.74317 | 113.14037 | 37868 ft | 407 kts | 241° |
| 2026-04-28 14:25 | 21.71473 | 113.08777 | 37857 ft | 407 kts | 241° |
| 2026-04-28 14:26 | 21.68623 | 113.03511 | 37868 ft | 407 kts | 241° |
| 2026-04-28 14:26 | 21.65771 | 112.98246 | 37866 ft | 408 kts | 241° |
| 2026-04-28 14:27 | 21.62910 | 112.92969 | 37866 ft | 408 kts | 241° |
| 2026-04-28 14:27 | 21.60054 | 112.87702 | 37854 ft | 408 kts | 241° |
| 2026-04-28 14:28 | 21.57195 | 112.82437 | 37871 ft | 408 kts | 241° |
| 2026-04-28 14:28 | 21.54323 | 112.77162 | 37871 ft | 409 kts | 241° |
| 2026-04-28 14:29 | 21.51446 | 112.71878 | 37865 ft | 409 kts | 241° |
| 2026-04-28 14:29 | 21.48569 | 112.66599 | 37853 ft | 409 kts | 241° |
| 2026-04-28 14:30 | 21.45712 | 112.61360 | 37866 ft | 409 kts | 240° |
| 2026-04-28 14:30 | 21.42865 | 112.56145 | 37867 ft | 408 kts | 240° |
| 2026-04-28 14:31 | 21.39990 | 112.50883 | 37863 ft | 408 kts | 240° |
| 2026-04-28 14:31 | 21.37123 | 112.45642 | 37882 ft | 407 kts | 240° |
| 2026-04-28 14:32 | 21.34251 | 112.40396 | 37872 ft | 407 kts | 240° |
| 2026-04-28 14:32 | 21.31385 | 112.35166 | 37866 ft | 406 kts | 240° |
| 2026-04-28 14:33 | 21.28522 | 112.29947 | 37868 ft | 405 kts | 240° |
| 2026-04-28 14:33 | 21.25685 | 112.24781 | 37868 ft | 404 kts | 240° |
| 2026-04-28 14:34 | 21.21414 | 112.17011 | 37864 ft | 403 kts | 240° |
| 2026-04-28 14:35 | 21.18567 | 112.11838 | 37877 ft | 402 kts | 240° |
| 2026-04-28 14:35 | 21.15735 | 112.06696 | 37869 ft | 402 kts | 240° |
| 2026-04-28 14:36 | 21.12889 | 112.01535 | 37871 ft | 402 kts | 240° |
| 2026-04-28 14:36 | 21.10049 | 111.96389 | 37872 ft | 402 kts | 240° |
| 2026-04-28 14:37 | 21.07196 | 111.91224 | 37870 ft | 402 kts | 240° |
| 2026-04-28 14:37 | 21.04347 | 111.86073 | 37865 ft | 402 kts | 240° |
| 2026-04-28 14:38 | 21.01511 | 111.80947 | 37866 ft | 402 kts | 240° |
| 2026-04-28 14:38 | 20.98654 | 111.75789 | 37854 ft | 403 kts | 240° |
| 2026-04-28 14:39 | 20.95794 | 111.70631 | 37860 ft | 403 kts | 239° |
| 2026-04-28 14:39 | 20.92934 | 111.65477 | 37866 ft | 403 kts | 239° |
| 2026-04-28 14:40 | 20.90083 | 111.60343 | 37863 ft | 404 kts | 239° |
| 2026-04-28 14:40 | 20.87212 | 111.55176 | 37862 ft | 404 kts | 239° |
| 2026-04-28 14:41 | 20.84388 | 111.49978 | 37856 ft | 404 kts | 244° |
| 2026-04-28 14:41 | 20.82392 | 111.44346 | 37854 ft | 405 kts | 250° |
| 2026-04-28 14:42 | 20.80522 | 111.38670 | 37860 ft | 405 kts | 249° |
| 2026-04-28 14:42 | 20.78628 | 111.32991 | 37858 ft | 405 kts | 249° |
| 2026-04-28 14:43 | 20.76740 | 111.27364 | 37855 ft | 405 kts | 249° |
| 2026-04-28 14:43 | 20.74835 | 111.21700 | 37856 ft | 405 kts | 249° |
| 2026-04-28 14:44 | 20.72929 | 111.16040 | 37853 ft | 405 kts | 249° |
| 2026-04-28 14:44 | 20.71023 | 111.10384 | 37854 ft | 405 kts | 249° |
| 2026-04-28 14:45 | 20.69115 | 111.04732 | 37849 ft | 404 kts | 249° |
| 2026-04-28 14:45 | 20.67207 | 110.99083 | 37845 ft | 404 kts | 249° |
| 2026-04-28 14:46 | 20.65300 | 110.93445 | 37850 ft | 404 kts | 249° |
| 2026-04-28 14:46 | 20.63392 | 110.87799 | 37845 ft | 403 kts | 249° |
| 2026-04-28 14:47 | 20.61500 | 110.82159 | 37836 ft | 403 kts | 249° |
| 2026-04-28 14:47 | 20.59617 | 110.76549 | 37835 ft | 403 kts | 250° |
| 2026-04-28 14:48 | 20.57722 | 110.70913 | 37838 ft | 403 kts | 250° |
| 2026-04-28 14:48 | 20.55826 | 110.65283 | 37839 ft | 403 kts | 250° |
| 2026-04-28 14:49 | 20.53924 | 110.59642 | 37842 ft | 403 kts | 250° |
| 2026-04-28 14:49 | 20.52026 | 110.54019 | 37831 ft | 403 kts | 249° |
| 2026-04-28 14:50 | 20.49699 | 110.48593 | 37844 ft | 403 kts | 238° |
| 2026-04-28 14:50 | 20.46249 | 110.43857 | 37844 ft | 404 kts | 232° |
| 2026-04-28 14:51 | 20.42692 | 110.39259 | 37841 ft | 405 kts | 232° |
| 2026-04-28 14:51 | 20.39128 | 110.34611 | 37835 ft | 405 kts | 232° |
| 2026-04-28 14:52 | 20.35570 | 110.29957 | 37839 ft | 405 kts | 232° |
| 2026-04-28 14:52 | 20.31990 | 110.25275 | 37836 ft | 405 kts | 232° |
| 2026-04-28 14:53 | 20.28456 | 110.20637 | 37838 ft | 405 kts | 232° |
| 2026-04-28 14:53 | 20.24934 | 110.15934 | 37816 ft | 405 kts | 232° |
| 2026-04-28 14:54 | 20.21429 | 110.11241 | 37833 ft | 405 kts | 233° |
| 2026-04-28 14:54 | 20.17915 | 110.06553 | 37829 ft | 405 kts | 233° |
| 2026-04-28 14:55 | 20.14395 | 110.01865 | 37827 ft | 405 kts | 233° |
| 2026-04-28 14:55 | 20.10893 | 109.97205 | 37831 ft | 405 kts | 233° |
| 2026-04-28 14:56 | 20.07368 | 109.92517 | 37827 ft | 405 kts | 233° |
| 2026-04-28 14:56 | 20.03843 | 109.87835 | 37824 ft | 405 kts | 233° |
| 2026-04-28 14:57 | 20.00306 | 109.83139 | 37824 ft | 406 kts | 233° |
| 2026-04-28 14:57 | 19.96798 | 109.78485 | 37820 ft | 406 kts | 233° |
| 2026-04-28 14:58 | 19.93261 | 109.73795 | 37826 ft | 407 kts | 233° |
| 2026-04-28 14:58 | 19.89711 | 109.69095 | 37818 ft | 408 kts | 233° |
| 2026-04-28 14:59 | 19.86149 | 109.64380 | 37818 ft | 409 kts | 233° |
| 2026-04-28 14:59 | 19.82574 | 109.59653 | 37817 ft | 410 kts | 233° |
| 2026-04-28 15:00 | 19.79012 | 109.54947 | 37815 ft | 411 kts | 233° |
| 2026-04-28 15:00 | 19.75427 | 109.50214 | 37816 ft | 411 kts | 232° |
| 2026-04-28 15:01 | 19.72441 | 109.46274 | 37812 ft | 412 kts | 232° |
| 2026-04-28 15:01 | 19.68842 | 109.41529 | 37805 ft | 412 kts | 232° |
| 2026-04-28 15:02 | 19.65248 | 109.36796 | 37810 ft | 411 kts | 232° |
| 2026-04-28 15:02 | 19.61661 | 109.32074 | 37813 ft | 411 kts | 232° |
| 2026-04-28 15:03 | 19.58070 | 109.27350 | 37811 ft | 410 kts | 232° |
| 2026-04-28 15:03 | 19.54511 | 109.22670 | 37811 ft | 410 kts | 232° |
| 2026-04-28 15:04 | 19.50931 | 109.17975 | 37814 ft | 409 kts | 232° |
| 2026-04-28 15:04 | 19.47337 | 109.13312 | 37813 ft | 409 kts | 232° |
| 2026-04-28 15:05 | 19.43733 | 109.08647 | 37816 ft | 408 kts | 232° |
| 2026-04-28 15:05 | 19.40138 | 109.03990 | 37812 ft | 408 kts | 232° |
| 2026-04-28 15:06 | 19.36542 | 108.99333 | 37819 ft | 408 kts | 232° |
| 2026-04-28 15:06 | 19.32954 | 108.94688 | 37813 ft | 407 kts | 232° |
| 2026-04-28 15:07 | 19.29361 | 108.90040 | 37814 ft | 408 kts | 232° |
| 2026-04-28 15:07 | 19.25787 | 108.85421 | 37823 ft | 408 kts | 232° |
| 2026-04-28 15:08 | 19.22181 | 108.80768 | 37819 ft | 408 kts | 232° |
| 2026-04-28 15:08 | 19.18575 | 108.76116 | 37822 ft | 409 kts | 232° |
| 2026-04-28 15:09 | 19.14971 | 108.71469 | 37803 ft | 409 kts | 232° |
| 2026-04-28 15:09 | 19.11376 | 108.66837 | 37818 ft | 409 kts | 232° |
| 2026-04-28 15:10 | 19.07760 | 108.62180 | 37822 ft | 409 kts | 232° |
| 2026-04-28 15:10 | 19.04144 | 108.57528 | 37822 ft | 410 kts | 232° |
| 2026-04-28 15:11 | 19.00520 | 108.52868 | 37819 ft | 410 kts | 232° |
| 2026-04-28 15:11 | 18.96895 | 108.48211 | 37822 ft | 410 kts | 232° |
| 2026-04-28 15:12 | 18.93271 | 108.43558 | 37822 ft | 410 kts | 232° |
| 2026-04-28 15:12 | 18.89646 | 108.38908 | 37856 ft | 410 kts | 232° |
| 2026-04-28 15:13 | 18.86021 | 108.34262 | 37842 ft | 410 kts | 232° |
| 2026-04-28 15:13 | 18.82411 | 108.29637 | 37858 ft | 409 kts | 231° |
| 2026-04-28 15:14 | 18.78797 | 108.25012 | 37860 ft | 408 kts | 232° |
| 2026-04-28 15:14 | 18.75181 | 108.20386 | 37856 ft | 408 kts | 231° |
| 2026-04-28 15:15 | 18.71563 | 108.15763 | 37863 ft | 407 kts | 231° |
| 2026-04-28 15:15 | 18.67974 | 108.11178 | 37863 ft | 407 kts | 231° |
| 2026-04-28 15:16 | 18.64371 | 108.06581 | 37863 ft | 407 kts | 231° |
| 2026-04-28 15:16 | 18.60760 | 108.01975 | 37863 ft | 407 kts | 231° |
| 2026-04-28 15:17 | 18.57151 | 107.97376 | 37844 ft | 407 kts | 231° |
| 2026-04-28 15:17 | 18.53543 | 107.92781 | 37860 ft | 407 kts | 231° |
| 2026-04-28 15:18 | 18.49929 | 107.88182 | 37860 ft | 407 kts | 231° |
| 2026-04-28 15:18 | 18.46311 | 107.83581 | 37859 ft | 408 kts | 231° |
| 2026-04-28 15:19 | 18.42704 | 107.78996 | 37858 ft | 409 kts | 231° |
| 2026-04-28 15:19 | 18.39065 | 107.74374 | 37865 ft | 410 kts | 231° |
| 2026-04-28 15:20 | 18.35875 | 107.69446 | 37862 ft | 409 kts | 250° |
| 2026-04-28 15:20 | 18.35182 | 107.66538 | 37844 ft | 412 kts | 261° |
| 2026-04-28 15:20 | 18.35091 | 107.63517 | 37860 ft | 416 kts | 273° |
| 2026-04-28 15:21 | 18.36187 | 107.57505 | 37856 ft | 419 kts | 278° |
| 2026-04-28 15:21 | 18.37466 | 107.51506 | 37856 ft | 420 kts | 278° |
| 2026-04-28 15:22 | 18.38702 | 107.45499 | 37852 ft | 419 kts | 278° |
| 2026-04-28 15:22 | 18.39901 | 107.39488 | 37854 ft | 419 kts | 278° |
| 2026-04-28 15:23 | 18.41080 | 107.33511 | 37851 ft | 419 kts | 278° |
| 2026-04-28 15:23 | 18.42264 | 107.27499 | 37848 ft | 419 kts | 278° |
| 2026-04-28 15:24 | 18.43446 | 107.21493 | 37853 ft | 419 kts | 278° |
| 2026-04-28 15:24 | 18.44626 | 107.15487 | 37842 ft | 418 kts | 278° |
| 2026-04-28 15:25 | 18.45799 | 107.09505 | 37843 ft | 418 kts | 277° |
| 2026-04-28 15:25 | 18.46974 | 107.03503 | 37841 ft | 418 kts | 277° |
| 2026-04-28 15:26 | 18.48143 | 106.97496 | 37839 ft | 418 kts | 277° |
| 2026-04-28 15:26 | 18.49306 | 106.91500 | 37838 ft | 418 kts | 277° |
| 2026-04-28 15:27 | 18.50471 | 106.85490 | 37836 ft | 418 kts | 277° |
| 2026-04-28 15:27 | 18.51631 | 106.79493 | 37836 ft | 418 kts | 277° |
| 2026-04-28 15:28 | 18.52791 | 106.73487 | 37830 ft | 418 kts | 277° |